sensor_id;sensor_type;location;lat;lon;timestamp;P1;durP1;ratioP1;P2;durP2;ratioP2
63034;SDS011;59750;53.356;-1.458;2022-11-14T00:02:20;75.50;;;29.15;;
63034;SDS011;59750;53.356;-1.458;2022-11-14T00:04:46;72.80;;;28.90;;
63034;SDS011;59750;53.356;-1.458;2022-11-14T00:07:13;67.78;;;26.92;;
63034;SDS011;59750;53.356;-1.458;2022-11-14T00:09:40;67.53;;;26.58;;
63034;SDS011;59750;53.356;-1.458;2022-11-14T00:12:08;80.97;;;29.73;;
63034;SDS011;59750;53.356;-1.458;2022-11-14T00:14:34;71.63;;;27.92;;
63034;SDS011;59750;53.356;-1.458;2022-11-14T00:17:00;71.28;;;28.70;;
63034;SDS011;59750;53.356;-1.458;2022-11-14T00:19:26;75.40;;;28.25;;
63034;SDS011;59750;53.356;-1.458;2022-11-14T00:21:52;66.72;;;26.13;;
63034;SDS011;59750;53.356;-1.458;2022-11-14T00:24:19;68.93;;;25.92;;
63034;SDS011;59750;53.356;-1.458;2022-11-14T00:26:45;67.15;;;24.70;;
63034;SDS011;59750;53.356;-1.458;2022-11-14T00:29:11;63.38;;;25.95;;
63034;SDS011;59750;53.356;-1.458;2022-11-14T00:31:38;62.92;;;25.73;;
63034;SDS011;59750;53.356;-1.458;2022-11-14T00:34:04;61.95;;;24.70;;
63034;SDS011;59750;53.356;-1.458;2022-11-14T00:36:30;63.92;;;23.63;;
63034;SDS011;59750;53.356;-1.458;2022-11-14T00:38:56;60.35;;;25.27;;
63034;SDS011;59750;53.356;-1.458;2022-11-14T00:41:22;58.50;;;24.92;;
63034;SDS011;59750;53.356;-1.458;2022-11-14T00:43:48;61.05;;;23.73;;
63034;SDS011;59750;53.356;-1.458;2022-11-14T00:46:15;50.05;;;23.38;;
63034;SDS011;59750;53.356;-1.458;2022-11-14T00:48:41;49.97;;;21.85;;
63034;SDS011;59750;53.356;-1.458;2022-11-14T00:51:07;51.85;;;22.75;;
63034;SDS011;59750;53.356;-1.458;2022-11-14T00:53:33;61.13;;;23.10;;
63034;SDS011;59750;53.356;-1.458;2022-11-14T00:56:00;55.10;;;23.80;;
63034;SDS011;59750;53.356;-1.458;2022-11-14T00:58:27;55.63;;;22.50;;
63034;SDS011;59750;53.356;-1.458;2022-11-14T01:00:53;48.53;;;22.83;;
63034;SDS011;59750;53.356;-1.458;2022-11-14T01:03:20;66.05;;;24.63;;
63034;SDS011;59750;53.356;-1.458;2022-11-14T01:05:47;53.05;;;23.45;;
63034;SDS011;59750;53.356;-1.458;2022-11-14T01:08:15;55.08;;;23.30;;
63034;SDS011;59750;53.356;-1.458;2022-11-14T01:10:44;53.70;;;22.52;;
63034;SDS011;59750;53.356;-1.458;2022-11-14T01:13:11;63.95;;;27.27;;
63034;SDS011;59750;53.356;-1.458;2022-11-14T01:15:39;67.00;;;25.52;;
63034;SDS011;59750;53.356;-1.458;2022-11-14T01:18:06;58.15;;;26.60;;
63034;SDS011;59750;53.356;-1.458;2022-11-14T01:20:32;53.75;;;23.73;;
63034;SDS011;59750;53.356;-1.458;2022-11-14T01:22:58;57.08;;;24.10;;
63034;SDS011;59750;53.356;-1.458;2022-11-14T01:25:24;50.65;;;22.63;;
63034;SDS011;59750;53.356;-1.458;2022-11-14T01:27:49;50.30;;;22.55;;
63034;SDS011;59750;53.356;-1.458;2022-11-14T01:30:15;60.40;;;25.35;;
63034;SDS011;59750;53.356;-1.458;2022-11-14T01:32:41;74.18;;;28.52;;
63034;SDS011;59750;53.356;-1.458;2022-11-14T01:35:07;75.18;;;31.27;;
63034;SDS011;59750;53.356;-1.458;2022-11-14T01:37:33;73.10;;;31.08;;
63034;SDS011;59750;53.356;-1.458;2022-11-14T01:39:58;69.22;;;29.02;;
63034;SDS011;59750;53.356;-1.458;2022-11-14T01:42:24;75.50;;;29.27;;
63034;SDS011;59750;53.356;-1.458;2022-11-14T01:44:51;73.65;;;29.42;;
63034;SDS011;59750;53.356;-1.458;2022-11-14T01:47:20;71.40;;;28.35;;
63034;SDS011;59750;53.356;-1.458;2022-11-14T01:49:51;71.70;;;26.83;;
63034;SDS011;59750;53.356;-1.458;2022-11-14T01:52:22;66.32;;;28.00;;
63034;SDS011;59750;53.356;-1.458;2022-11-14T01:54:54;68.70;;;27.67;;
63034;SDS011;59750;53.356;-1.458;2022-11-14T01:57:32;75.35;;;30.00;;
63034;SDS011;59750;53.356;-1.458;2022-11-14T02:00:04;74.40;;;27.38;;
63034;SDS011;59750;53.356;-1.458;2022-11-14T02:02:32;80.45;;;31.45;;
63034;SDS011;59750;53.356;-1.458;2022-11-14T02:05:00;71.20;;;29.48;;
63034;SDS011;59750;53.356;-1.458;2022-11-14T02:07:33;77.35;;;29.23;;
63034;SDS011;59750;53.356;-1.458;2022-11-14T02:10:04;76.53;;;27.75;;
63034;SDS011;59750;53.356;-1.458;2022-11-14T02:12:33;66.28;;;28.13;;
63034;SDS011;59750;53.356;-1.458;2022-11-14T02:15:00;67.65;;;27.48;;
63034;SDS011;59750;53.356;-1.458;2022-11-14T02:17:27;67.93;;;27.40;;
63034;SDS011;59750;53.356;-1.458;2022-11-14T02:19:55;63.15;;;25.85;;
63034;SDS011;59750;53.356;-1.458;2022-11-14T02:22:40;67.95;;;26.85;;
63034;SDS011;59750;53.356;-1.458;2022-11-14T02:25:07;73.43;;;28.45;;
63034;SDS011;59750;53.356;-1.458;2022-11-14T02:27:35;74.90;;;27.10;;
63034;SDS011;59750;53.356;-1.458;2022-11-14T02:30:08;94.07;;;32.15;;
63034;SDS011;59750;53.356;-1.458;2022-11-14T02:32:37;75.53;;;29.15;;
63034;SDS011;59750;53.356;-1.458;2022-11-14T02:35:03;81.93;;;27.38;;
63034;SDS011;59750;53.356;-1.458;2022-11-14T02:37:29;75.00;;;28.38;;
63034;SDS011;59750;53.356;-1.458;2022-11-14T02:39:55;82.10;;;30.08;;
63034;SDS011;59750;53.356;-1.458;2022-11-14T02:42:21;85.38;;;31.25;;
63034;SDS011;59750;53.356;-1.458;2022-11-14T02:44:47;100.22;;;31.65;;
63034;SDS011;59750;53.356;-1.458;2022-11-14T02:47:12;101.13;;;34.25;;
63034;SDS011;59750;53.356;-1.458;2022-11-14T02:49:38;98.30;;;33.17;;
63034;SDS011;59750;53.356;-1.458;2022-11-14T02:52:04;108.18;;;31.25;;
63034;SDS011;59750;53.356;-1.458;2022-11-14T02:54:29;93.03;;;31.00;;
63034;SDS011;59750;53.356;-1.458;2022-11-14T02:56:57;94.38;;;33.13;;
63034;SDS011;59750;53.356;-1.458;2022-11-14T02:59:23;95.90;;;31.80;;
63034;SDS011;59750;53.356;-1.458;2022-11-14T03:01:49;89.32;;;28.65;;
63034;SDS011;59750;53.356;-1.458;2022-11-14T03:04:15;82.05;;;29.92;;
63034;SDS011;59750;53.356;-1.458;2022-11-14T03:06:41;91.25;;;29.90;;
63034;SDS011;59750;53.356;-1.458;2022-11-14T03:09:06;89.88;;;30.05;;
63034;SDS011;59750;53.356;-1.458;2022-11-14T03:11:32;91.50;;;29.05;;
63034;SDS011;59750;53.356;-1.458;2022-11-14T03:13:58;87.90;;;31.60;;
63034;SDS011;59750;53.356;-1.458;2022-11-14T03:16:24;86.15;;;28.27;;
63034;SDS011;59750;53.356;-1.458;2022-11-14T03:18:50;87.20;;;30.67;;
63034;SDS011;59750;53.356;-1.458;2022-11-14T03:21:19;81.82;;;29.40;;
63034;SDS011;59750;53.356;-1.458;2022-11-14T03:23:46;79.10;;;28.75;;
63034;SDS011;59750;53.356;-1.458;2022-11-14T03:26:12;82.63;;;28.55;;
63034;SDS011;59750;53.356;-1.458;2022-11-14T03:28:39;86.90;;;28.20;;
63034;SDS011;59750;53.356;-1.458;2022-11-14T03:31:06;87.70;;;29.67;;
63034;SDS011;59750;53.356;-1.458;2022-11-14T03:33:33;74.70;;;29.50;;
63034;SDS011;59750;53.356;-1.458;2022-11-14T03:36:00;73.28;;;28.02;;
63034;SDS011;59750;53.356;-1.458;2022-11-14T03:38:27;78.53;;;29.73;;
63034;SDS011;59750;53.356;-1.458;2022-11-14T03:40:52;77.18;;;30.27;;
63034;SDS011;59750;53.356;-1.458;2022-11-14T03:43:19;79.57;;;27.33;;
63034;SDS011;59750;53.356;-1.458;2022-11-14T03:45:46;76.28;;;29.33;;
63034;SDS011;59750;53.356;-1.458;2022-11-14T03:48:13;84.38;;;31.42;;
63034;SDS011;59750;53.356;-1.458;2022-11-14T03:50:39;91.00;;;29.50;;
63034;SDS011;59750;53.356;-1.458;2022-11-14T03:53:06;71.47;;;30.05;;
63034;SDS011;59750;53.356;-1.458;2022-11-14T03:55:36;75.47;;;27.70;;
63034;SDS011;59750;53.356;-1.458;2022-11-14T03:58:04;77.10;;;27.63;;
63034;SDS011;59750;53.356;-1.458;2022-11-14T04:00:30;75.03;;;29.83;;
63034;SDS011;59750;53.356;-1.458;2022-11-14T04:02:59;75.88;;;29.17;;
63034;SDS011;59750;53.356;-1.458;2022-11-14T04:05:24;83.07;;;27.23;;
63034;SDS011;59750;53.356;-1.458;2022-11-14T04:07:50;74.97;;;28.15;;
63034;SDS011;59750;53.356;-1.458;2022-11-14T04:10:16;67.35;;;26.35;;
63034;SDS011;59750;53.356;-1.458;2022-11-14T04:12:48;76.00;;;27.20;;
63034;SDS011;59750;53.356;-1.458;2022-11-14T04:15:16;82.97;;;29.00;;
63034;SDS011;59750;53.356;-1.458;2022-11-14T04:17:44;77.45;;;29.27;;
63034;SDS011;59750;53.356;-1.458;2022-11-14T04:20:11;72.63;;;25.35;;
63034;SDS011;59750;53.356;-1.458;2022-11-14T04:22:39;70.55;;;26.88;;
63034;SDS011;59750;53.356;-1.458;2022-11-14T04:25:05;70.55;;;27.15;;
63034;SDS011;59750;53.356;-1.458;2022-11-14T04:27:33;73.40;;;26.58;;
63034;SDS011;59750;53.356;-1.458;2022-11-14T04:29:59;62.22;;;24.65;;
63034;SDS011;59750;53.356;-1.458;2022-11-14T04:32:25;76.03;;;26.15;;
63034;SDS011;59750;53.356;-1.458;2022-11-14T04:34:50;73.53;;;26.60;;
63034;SDS011;59750;53.356;-1.458;2022-11-14T04:37:16;70.97;;;24.92;;
63034;SDS011;59750;53.356;-1.458;2022-11-14T04:39:42;69.35;;;25.50;;
63034;SDS011;59750;53.356;-1.458;2022-11-14T04:42:08;70.75;;;26.20;;
63034;SDS011;59750;53.356;-1.458;2022-11-14T04:44:34;70.30;;;26.50;;
63034;SDS011;59750;53.356;-1.458;2022-11-14T04:47:00;69.13;;;24.50;;
63034;SDS011;59750;53.356;-1.458;2022-11-14T04:49:25;64.75;;;25.17;;
63034;SDS011;59750;53.356;-1.458;2022-11-14T04:51:51;60.25;;;23.88;;
63034;SDS011;59750;53.356;-1.458;2022-11-14T04:54:17;64.68;;;25.08;;
63034;SDS011;59750;53.356;-1.458;2022-11-14T04:56:43;63.40;;;25.23;;
63034;SDS011;59750;53.356;-1.458;2022-11-14T04:59:09;77.40;;;25.67;;
63034;SDS011;59750;53.356;-1.458;2022-11-14T05:01:35;61.35;;;24.60;;
63034;SDS011;59750;53.356;-1.458;2022-11-14T05:04:00;62.92;;;24.45;;
63034;SDS011;59750;53.356;-1.458;2022-11-14T05:06:26;67.57;;;25.77;;
63034;SDS011;59750;53.356;-1.458;2022-11-14T05:08:51;62.28;;;25.63;;
63034;SDS011;59750;53.356;-1.458;2022-11-14T05:11:18;67.53;;;25.83;;
63034;SDS011;59750;53.356;-1.458;2022-11-14T05:13:45;70.28;;;24.58;;
63034;SDS011;59750;53.356;-1.458;2022-11-14T05:16:11;62.05;;;23.95;;
63034;SDS011;59750;53.356;-1.458;2022-11-14T05:18:38;60.20;;;24.02;;
63034;SDS011;59750;53.356;-1.458;2022-11-14T05:21:04;60.03;;;25.20;;
63034;SDS011;59750;53.356;-1.458;2022-11-14T05:23:31;64.60;;;24.02;;
63034;SDS011;59750;53.356;-1.458;2022-11-14T05:26:02;62.80;;;24.95;;
63034;SDS011;59750;53.356;-1.458;2022-11-14T05:28:30;57.63;;;24.00;;
63034;SDS011;59750;53.356;-1.458;2022-11-14T05:31:02;58.55;;;23.50;;
63034;SDS011;59750;53.356;-1.458;2022-11-14T05:33:30;71.15;;;26.40;;
63034;SDS011;59750;53.356;-1.458;2022-11-14T05:36:00;64.97;;;24.55;;
63034;SDS011;59750;53.356;-1.458;2022-11-14T05:38:31;58.83;;;23.25;;
63034;SDS011;59750;53.356;-1.458;2022-11-14T05:40:58;58.35;;;23.33;;
63034;SDS011;59750;53.356;-1.458;2022-11-14T05:43:24;60.88;;;23.10;;
63034;SDS011;59750;53.356;-1.458;2022-11-14T05:45:57;62.30;;;21.75;;
63034;SDS011;59750;53.356;-1.458;2022-11-14T05:48:25;63.23;;;22.83;;
63034;SDS011;59750;53.356;-1.458;2022-11-14T05:50:54;51.97;;;22.10;;
63034;SDS011;59750;53.356;-1.458;2022-11-14T05:53:22;62.35;;;24.30;;
63034;SDS011;59750;53.356;-1.458;2022-11-14T05:55:48;60.38;;;23.77;;
63034;SDS011;59750;53.356;-1.458;2022-11-14T05:58:14;59.40;;;23.73;;
63034;SDS011;59750;53.356;-1.458;2022-11-14T06:00:39;61.95;;;24.92;;
63034;SDS011;59750;53.356;-1.458;2022-11-14T06:03:05;57.53;;;23.23;;
63034;SDS011;59750;53.356;-1.458;2022-11-14T06:05:33;62.67;;;23.10;;
63034;SDS011;59750;53.356;-1.458;2022-11-14T06:08:00;60.92;;;24.02;;
63034;SDS011;59750;53.356;-1.458;2022-11-14T06:10:26;68.78;;;23.58;;
63034;SDS011;59750;53.356;-1.458;2022-11-14T06:12:52;57.80;;;23.73;;
63034;SDS011;59750;53.356;-1.458;2022-11-14T06:15:19;49.75;;;21.27;;
63034;SDS011;59750;53.356;-1.458;2022-11-14T06:17:45;62.55;;;23.45;;
63034;SDS011;59750;53.356;-1.458;2022-11-14T06:20:11;54.03;;;22.25;;
63034;SDS011;59750;53.356;-1.458;2022-11-14T06:22:39;59.10;;;22.55;;
63034;SDS011;59750;53.356;-1.458;2022-11-14T06:25:05;59.83;;;23.33;;
63034;SDS011;59750;53.356;-1.458;2022-11-14T06:27:31;58.70;;;21.80;;
63034;SDS011;59750;53.356;-1.458;2022-11-14T06:29:57;57.00;;;22.30;;
63034;SDS011;59750;53.356;-1.458;2022-11-14T06:32:23;54.97;;;21.40;;
63034;SDS011;59750;53.356;-1.458;2022-11-14T06:34:49;57.38;;;22.38;;
63034;SDS011;59750;53.356;-1.458;2022-11-14T06:37:15;53.47;;;21.13;;
63034;SDS011;59750;53.356;-1.458;2022-11-14T06:39:40;58.00;;;19.88;;
63034;SDS011;59750;53.356;-1.458;2022-11-14T06:42:06;59.10;;;22.55;;
63034;SDS011;59750;53.356;-1.458;2022-11-14T06:44:32;55.30;;;20.73;;
63034;SDS011;59750;53.356;-1.458;2022-11-14T06:46:58;55.80;;;20.63;;
63034;SDS011;59750;53.356;-1.458;2022-11-14T06:49:24;56.53;;;22.13;;
63034;SDS011;59750;53.356;-1.458;2022-11-14T06:51:50;53.30;;;21.98;;
63034;SDS011;59750;53.356;-1.458;2022-11-14T06:54:16;56.33;;;22.23;;
63034;SDS011;59750;53.356;-1.458;2022-11-14T06:56:46;56.92;;;23.02;;
63034;SDS011;59750;53.356;-1.458;2022-11-14T06:59:11;57.97;;;22.98;;
63034;SDS011;59750;53.356;-1.458;2022-11-14T07:01:38;54.25;;;23.67;;
63034;SDS011;59750;53.356;-1.458;2022-11-14T07:04:03;57.10;;;22.92;;
63034;SDS011;59750;53.356;-1.458;2022-11-14T07:06:29;62.15;;;24.85;;
63034;SDS011;59750;53.356;-1.458;2022-11-14T07:08:56;61.97;;;24.60;;
63034;SDS011;59750;53.356;-1.458;2022-11-14T07:11:23;62.03;;;25.38;;
63034;SDS011;59750;53.356;-1.458;2022-11-14T07:13:56;64.60;;;23.20;;
63034;SDS011;59750;53.356;-1.458;2022-11-14T07:16:25;60.20;;;23.65;;
63034;SDS011;59750;53.356;-1.458;2022-11-14T07:18:54;59.88;;;24.95;;
63034;SDS011;59750;53.356;-1.458;2022-11-14T07:21:21;64.80;;;23.95;;
63034;SDS011;59750;53.356;-1.458;2022-11-14T07:23:48;57.63;;;22.48;;
63034;SDS011;59750;53.356;-1.458;2022-11-14T07:26:14;58.25;;;22.42;;
63034;SDS011;59750;53.356;-1.458;2022-11-14T07:28:40;60.42;;;22.55;;
63034;SDS011;59750;53.356;-1.458;2022-11-14T07:31:09;58.10;;;22.67;;
63034;SDS011;59750;53.356;-1.458;2022-11-14T07:33:37;52.30;;;21.58;;
63034;SDS011;59750;53.356;-1.458;2022-11-14T07:36:04;53.92;;;21.83;;
63034;SDS011;59750;53.356;-1.458;2022-11-14T07:38:33;50.95;;;21.17;;
63034;SDS011;59750;53.356;-1.458;2022-11-14T07:41:02;47.58;;;20.48;;
63034;SDS011;59750;53.356;-1.458;2022-11-14T07:43:31;46.97;;;20.20;;
63034;SDS011;59750;53.356;-1.458;2022-11-14T07:45:59;50.00;;;18.30;;
63034;SDS011;59750;53.356;-1.458;2022-11-14T07:48:28;50.72;;;19.23;;
63034;SDS011;59750;53.356;-1.458;2022-11-14T07:50:58;49.50;;;17.80;;
63034;SDS011;59750;53.356;-1.458;2022-11-14T07:53:25;48.20;;;19.85;;
63034;SDS011;59750;53.356;-1.458;2022-11-14T07:55:52;48.55;;;18.50;;
63034;SDS011;59750;53.356;-1.458;2022-11-14T07:58:18;43.17;;;17.30;;
63034;SDS011;59750;53.356;-1.458;2022-11-14T08:00:44;52.60;;;17.83;;
63034;SDS011;59750;53.356;-1.458;2022-11-14T08:03:10;49.15;;;17.77;;
63034;SDS011;59750;53.356;-1.458;2022-11-14T08:05:36;43.80;;;16.25;;
63034;SDS011;59750;53.356;-1.458;2022-11-14T08:08:03;45.25;;;17.65;;
63034;SDS011;59750;53.356;-1.458;2022-11-14T08:10:29;34.80;;;15.00;;
63034;SDS011;59750;53.356;-1.458;2022-11-14T08:12:56;40.63;;;17.02;;
63034;SDS011;59750;53.356;-1.458;2022-11-14T08:15:24;46.42;;;15.85;;
63034;SDS011;59750;53.356;-1.458;2022-11-14T08:17:50;42.80;;;16.23;;
63034;SDS011;59750;53.356;-1.458;2022-11-14T08:20:17;37.83;;;16.00;;
63034;SDS011;59750;53.356;-1.458;2022-11-14T08:22:43;39.00;;;15.85;;
63034;SDS011;59750;53.356;-1.458;2022-11-14T08:25:09;41.10;;;16.23;;
63034;SDS011;59750;53.356;-1.458;2022-11-14T08:27:36;40.15;;;16.33;;
63034;SDS011;59750;53.356;-1.458;2022-11-14T08:30:02;44.10;;;16.42;;
63034;SDS011;59750;53.356;-1.458;2022-11-14T08:32:28;41.13;;;15.88;;
63034;SDS011;59750;53.356;-1.458;2022-11-14T08:34:54;43.30;;;18.33;;
63034;SDS011;59750;53.356;-1.458;2022-11-14T08:37:20;46.55;;;18.02;;
63034;SDS011;59750;53.356;-1.458;2022-11-14T08:39:47;50.03;;;18.35;;
63034;SDS011;59750;53.356;-1.458;2022-11-14T08:42:13;42.22;;;16.48;;
63034;SDS011;59750;53.356;-1.458;2022-11-14T08:44:39;38.70;;;15.23;;
63034;SDS011;59750;53.356;-1.458;2022-11-14T08:47:05;41.92;;;15.88;;
63034;SDS011;59750;53.356;-1.458;2022-11-14T08:49:31;38.45;;;15.50;;
63034;SDS011;59750;53.356;-1.458;2022-11-14T08:51:57;36.03;;;15.18;;
63034;SDS011;59750;53.356;-1.458;2022-11-14T08:54:23;43.20;;;15.63;;
63034;SDS011;59750;53.356;-1.458;2022-11-14T08:56:49;35.80;;;14.77;;
63034;SDS011;59750;53.356;-1.458;2022-11-14T08:59:16;42.22;;;15.00;;
63034;SDS011;59750;53.356;-1.458;2022-11-14T09:01:42;42.33;;;16.23;;
63034;SDS011;59750;53.356;-1.458;2022-11-14T09:04:08;42.08;;;17.52;;
63034;SDS011;59750;53.356;-1.458;2022-11-14T09:06:34;49.47;;;17.75;;
63034;SDS011;59750;53.356;-1.458;2022-11-14T09:09:01;46.17;;;18.02;;
63034;SDS011;59750;53.356;-1.458;2022-11-14T09:11:27;50.10;;;18.35;;
63034;SDS011;59750;53.356;-1.458;2022-11-14T09:13:53;46.00;;;18.00;;
63034;SDS011;59750;53.356;-1.458;2022-11-14T09:16:19;46.30;;;17.88;;
63034;SDS011;59750;53.356;-1.458;2022-11-14T09:18:45;45.95;;;17.88;;
63034;SDS011;59750;53.356;-1.458;2022-11-14T09:21:11;44.22;;;17.08;;
63034;SDS011;59750;53.356;-1.458;2022-11-14T09:23:37;49.78;;;17.40;;
63034;SDS011;59750;53.356;-1.458;2022-11-14T09:26:03;45.53;;;16.70;;
63034;SDS011;59750;53.356;-1.458;2022-11-14T09:28:32;45.75;;;16.85;;
63034;SDS011;59750;53.356;-1.458;2022-11-14T09:31:00;41.50;;;18.70;;
63034;SDS011;59750;53.356;-1.458;2022-11-14T09:33:27;41.75;;;15.52;;
63034;SDS011;59750;53.356;-1.458;2022-11-14T09:35:55;42.00;;;15.30;;
63034;SDS011;59750;53.356;-1.458;2022-11-14T09:38:23;34.75;;;14.38;;
63034;SDS011;59750;53.356;-1.458;2022-11-14T09:52:07;40.90;;;14.27;;
63034;SDS011;59750;53.356;-1.458;2022-11-14T09:54:51;42.13;;;16.13;;
63034;SDS011;59750;53.356;-1.458;2022-11-14T09:57:21;36.70;;;15.67;;
63034;SDS011;59750;53.356;-1.458;2022-11-14T09:59:48;37.83;;;15.98;;
63034;SDS011;59750;53.356;-1.458;2022-11-14T10:16:03;39.78;;;15.30;;
63034;SDS011;59750;53.356;-1.458;2022-11-14T10:26:52;44.22;;;15.88;;
63034;SDS011;59750;53.356;-1.458;2022-11-14T10:35:03;44.28;;;17.02;;
63034;SDS011;59750;53.356;-1.458;2022-11-14T10:37:36;42.78;;;16.83;;
63034;SDS011;59750;53.356;-1.458;2022-11-14T10:40:26;42.63;;;16.60;;
63034;SDS011;59750;53.356;-1.458;2022-11-14T10:43:02;45.60;;;17.10;;
63034;SDS011;59750;53.356;-1.458;2022-11-14T10:45:52;45.53;;;17.23;;
63034;SDS011;59750;53.356;-1.458;2022-11-14T10:48:27;47.70;;;16.23;;
63034;SDS011;59750;53.356;-1.458;2022-11-14T10:53:56;46.95;;;17.63;;
63034;SDS011;59750;53.356;-1.458;2022-11-14T10:56:28;36.03;;;15.45;;
63034;SDS011;59750;53.356;-1.458;2022-11-14T10:58:54;42.35;;;17.00;;
63034;SDS011;59750;53.356;-1.458;2022-11-14T11:06:54;42.17;;;16.40;;
63034;SDS011;59750;53.356;-1.458;2022-11-14T11:09:24;36.35;;;16.15;;
63034;SDS011;59750;53.356;-1.458;2022-11-14T11:12:17;38.65;;;16.02;;
63034;SDS011;59750;53.356;-1.458;2022-11-14T11:14:47;37.15;;;16.52;;
63034;SDS011;59750;53.356;-1.458;2022-11-14T11:17:33;34.72;;;16.65;;
63034;SDS011;59750;53.356;-1.458;2022-11-14T11:25:36;39.50;;;16.40;;
63034;SDS011;59750;53.356;-1.458;2022-11-14T11:30:53;41.15;;;17.33;;
63034;SDS011;59750;53.356;-1.458;2022-11-14T11:33:23;43.08;;;17.25;;
63034;SDS011;59750;53.356;-1.458;2022-11-14T11:35:53;36.97;;;15.18;;
63034;SDS011;59750;53.356;-1.458;2022-11-14T11:38:29;46.05;;;17.38;;
63034;SDS011;59750;53.356;-1.458;2022-11-14T11:41:18;42.50;;;17.35;;
63034;SDS011;59750;53.356;-1.458;2022-11-14T11:43:55;66.85;;;23.63;;
63034;SDS011;59750;53.356;-1.458;2022-11-14T11:46:23;58.47;;;19.52;;
63034;SDS011;59750;53.356;-1.458;2022-11-14T11:48:53;52.13;;;18.17;;
63034;SDS011;59750;53.356;-1.458;2022-11-14T11:51:27;53.42;;;20.08;;
63034;SDS011;59750;53.356;-1.458;2022-11-14T11:53:58;47.83;;;18.13;;
63034;SDS011;59750;53.356;-1.458;2022-11-14T11:59:13;48.60;;;17.30;;
63034;SDS011;59750;53.356;-1.458;2022-11-14T12:01:42;49.97;;;16.58;;
63034;SDS011;59750;53.356;-1.458;2022-11-14T12:04:08;37.08;;;15.75;;
63034;SDS011;59750;53.356;-1.458;2022-11-14T12:06:38;44.70;;;17.15;;
63034;SDS011;59750;53.356;-1.458;2022-11-14T12:09:17;43.92;;;15.63;;
63034;SDS011;59750;53.356;-1.458;2022-11-14T12:11:48;48.83;;;19.02;;
63034;SDS011;59750;53.356;-1.458;2022-11-14T12:22:30;48.08;;;16.33;;
63034;SDS011;59750;53.356;-1.458;2022-11-14T12:32:45;61.42;;;20.23;;
63034;SDS011;59750;53.356;-1.458;2022-11-14T12:35:19;58.65;;;20.10;;
63034;SDS011;59750;53.356;-1.458;2022-11-14T12:37:51;47.78;;;18.25;;
63034;SDS011;59750;53.356;-1.458;2022-11-14T12:40:21;53.08;;;19.30;;
63034;SDS011;59750;53.356;-1.458;2022-11-14T12:46:12;50.35;;;18.48;;
63034;SDS011;59750;53.356;-1.458;2022-11-14T12:48:40;47.95;;;19.85;;
63034;SDS011;59750;53.356;-1.458;2022-11-14T12:54:02;44.40;;;18.63;;
63034;SDS011;59750;53.356;-1.458;2022-11-14T12:59:00;45.65;;;17.73;;
63034;SDS011;59750;53.356;-1.458;2022-11-14T13:04:23;43.65;;;17.95;;
63034;SDS011;59750;53.356;-1.458;2022-11-14T13:09:34;42.33;;;17.75;;
63034;SDS011;59750;53.356;-1.458;2022-11-14T13:15:19;45.88;;;17.92;;
63034;SDS011;59750;53.356;-1.458;2022-11-14T13:18:13;38.28;;;16.48;;
63034;SDS011;59750;53.356;-1.458;2022-11-14T13:21:03;39.45;;;16.58;;
63034;SDS011;59750;53.356;-1.458;2022-11-14T13:24:06;42.75;;;18.17;;
63034;SDS011;59750;53.356;-1.458;2022-11-14T13:26:34;39.05;;;16.48;;
63034;SDS011;59750;53.356;-1.458;2022-11-14T13:29:02;44.70;;;17.95;;
63034;SDS011;59750;53.356;-1.458;2022-11-14T13:40:29;40.17;;;16.30;;
63034;SDS011;59750;53.356;-1.458;2022-11-14T13:45:39;37.55;;;16.70;;
63034;SDS011;59750;53.356;-1.458;2022-11-14T13:50:56;38.05;;;14.73;;
63034;SDS011;59750;53.356;-1.458;2022-11-14T13:53:27;32.05;;;16.00;;
63034;SDS011;59750;53.356;-1.458;2022-11-14T13:56:00;37.85;;;16.08;;
63034;SDS011;59750;53.356;-1.458;2022-11-14T14:09:09;36.67;;;16.45;;
63034;SDS011;59750;53.356;-1.458;2022-11-14T14:22:40;25.63;;;13.07;;
63034;SDS011;59750;53.356;-1.458;2022-11-14T14:25:20;25.92;;;12.25;;
63034;SDS011;59750;53.356;-1.458;2022-11-14T14:33:40;20.85;;;11.07;;
63034;SDS011;59750;53.356;-1.458;2022-11-14T14:36:16;18.70;;;10.00;;
63034;SDS011;59750;53.356;-1.458;2022-11-14T14:41:50;20.40;;;10.60;;
63034;SDS011;59750;53.356;-1.458;2022-11-14T14:44:22;17.52;;;10.60;;
63034;SDS011;59750;53.356;-1.458;2022-11-14T14:46:52;19.60;;;10.75;;
63034;SDS011;59750;53.356;-1.458;2022-11-14T14:49:22;20.02;;;9.05;;
63034;SDS011;59750;53.356;-1.458;2022-11-14T14:51:52;16.98;;;11.13;;
63034;SDS011;59750;53.356;-1.458;2022-11-14T14:54:19;14.18;;;8.68;;
63034;SDS011;59750;53.356;-1.458;2022-11-14T14:56:51;18.73;;;10.13;;
63034;SDS011;59750;53.356;-1.458;2022-11-14T14:59:22;16.63;;;10.70;;
63034;SDS011;59750;53.356;-1.458;2022-11-14T15:01:49;16.08;;;9.45;;
63034;SDS011;59750;53.356;-1.458;2022-11-14T15:04:16;15.45;;;9.20;;
63034;SDS011;59750;53.356;-1.458;2022-11-14T15:06:45;15.18;;;9.07;;
63034;SDS011;59750;53.356;-1.458;2022-11-14T15:09:14;19.08;;;10.80;;
63034;SDS011;59750;53.356;-1.458;2022-11-14T15:11:46;17.70;;;10.35;;
63034;SDS011;59750;53.356;-1.458;2022-11-14T15:14:18;15.93;;;9.50;;
63034;SDS011;59750;53.356;-1.458;2022-11-14T15:16:48;18.23;;;10.88;;
63034;SDS011;59750;53.356;-1.458;2022-11-14T15:19:19;21.20;;;11.52;;
63034;SDS011;59750;53.356;-1.458;2022-11-14T15:24:39;17.48;;;10.48;;
63034;SDS011;59750;53.356;-1.458;2022-11-14T15:27:13;17.55;;;10.65;;
63034;SDS011;59750;53.356;-1.458;2022-11-14T15:29:44;18.20;;;10.50;;
63034;SDS011;59750;53.356;-1.458;2022-11-14T15:32:20;19.45;;;10.90;;
63034;SDS011;59750;53.356;-1.458;2022-11-14T15:40:31;20.10;;;11.20;;
63034;SDS011;59750;53.356;-1.458;2022-11-14T15:42:59;17.70;;;11.07;;
63034;SDS011;59750;53.356;-1.458;2022-11-14T15:45:28;21.52;;;11.00;;
63034;SDS011;59750;53.356;-1.458;2022-11-14T15:48:12;19.95;;;11.95;;
63034;SDS011;59750;53.356;-1.458;2022-11-14T15:50:40;21.05;;;12.02;;
63034;SDS011;59750;53.356;-1.458;2022-11-14T15:55:54;21.73;;;12.27;;
63034;SDS011;59750;53.356;-1.458;2022-11-14T15:58:21;22.30;;;11.48;;
63034;SDS011;59750;53.356;-1.458;2022-11-14T16:00:49;20.63;;;12.88;;
63034;SDS011;59750;53.356;-1.458;2022-11-14T16:03:18;20.75;;;12.18;;
63034;SDS011;59750;53.356;-1.458;2022-11-14T16:05:48;16.98;;;11.05;;
63034;SDS011;59750;53.356;-1.458;2022-11-14T16:08:14;19.67;;;10.88;;
63034;SDS011;59750;53.356;-1.458;2022-11-14T16:10:40;26.00;;;13.70;;
63034;SDS011;59750;53.356;-1.458;2022-11-14T16:13:07;18.25;;;11.50;;
63034;SDS011;59750;53.356;-1.458;2022-11-14T16:15:35;19.05;;;12.55;;
63034;SDS011;59750;53.356;-1.458;2022-11-14T16:18:02;20.02;;;12.18;;
63034;SDS011;59750;53.356;-1.458;2022-11-14T16:20:29;21.15;;;11.73;;
63034;SDS011;59750;53.356;-1.458;2022-11-14T16:23:17;18.98;;;11.60;;
63034;SDS011;59750;53.356;-1.458;2022-11-14T16:25:44;19.42;;;11.35;;
63034;SDS011;59750;53.356;-1.458;2022-11-14T16:28:10;22.83;;;12.10;;
63034;SDS011;59750;53.356;-1.458;2022-11-14T16:30:36;20.45;;;11.38;;
63034;SDS011;59750;53.356;-1.458;2022-11-14T16:33:02;19.08;;;11.82;;
63034;SDS011;59750;53.356;-1.458;2022-11-14T16:35:31;18.33;;;11.05;;
63034;SDS011;59750;53.356;-1.458;2022-11-14T16:37:58;19.35;;;11.00;;
63034;SDS011;59750;53.356;-1.458;2022-11-14T16:40:24;18.50;;;11.55;;
63034;SDS011;59750;53.356;-1.458;2022-11-14T16:42:52;18.77;;;10.93;;
63034;SDS011;59750;53.356;-1.458;2022-11-14T16:45:20;19.27;;;10.43;;